• Join FlightAware (Why Join?)
  • Login
  • US Flag 
01:56AM EST


 

Airport Tracker/Info


-or-


 

Live Flight TrackerFlight Track Log ✈ AAL1862 ✈ 19-Jun-2013 ✈ KDFW - KSTL

Flight Track Log - Related Links

Times and Time Zones

All times are in EDT time to prevent confusion due to time zone crossing. See the AAL1862 flight status page for this flight to view local times or setup timezone preferences in your user account.

Time Position Orientation Groundspeed Altitude Reporting Facility
EDT Latitude Longitude Course Direction KTS MPH feet Rate Location/Type
07:36AM 32.8833 -97.0333 357° North 164 189 1,400  Level Dallas / Fort Worth TRACON
07:36AM 32.8500 -97.0167 157° South 209 241 2,800 2,520 Climbing Dallas / Fort Worth TRACON
07:38AM 32.7578 -96.8610 77° East  Level FlightAware Approximate
07:39AM 32.8433 -96.8013 10° North  Level FlightAware Approximate
07:39AM 32.7697 -96.8797 125° Southeast 227 261 9,600  Level Fort Worth Center
07:40AM 32.9593 -96.8000 North  Level FlightAware Approximate
07:40AM 32.8572 -96.8494 16° North 201 231 11,300  Level Fort Worth Center
07:41AM 33.0753 -96.8006 357° North  Level FlightAware Approximate
07:41AM 32.9614 -96.8414 North 329 379 14,500  Level Fort Worth Center
07:42AM 33.0658 -96.8383 North 361 415 16,700 2,220 Climbing Fort Worth Center
07:43AM 33.1661 -96.8353 North 386 444 19,000 2,340 Climbing Fort Worth Center
07:44AM 33.2869 -96.7847 19° North 399 459 21,400 1,980 Climbing Fort Worth Center
07:45AM 33.3869 -96.7392 21° North 423 487 23,000 1,800 Climbing Fort Worth Center
07:46AM 33.5014 -96.6886 20° North 428 493 25,100 1,800 Climbing Fort Worth Center
07:47AM 33.6178 -96.6328 22° Northeast 433 498 26,700 1,380 Climbing Fort Worth Center
07:48AM 33.7447 -96.5767 20° North 433 498 27,900 1,740 Climbing Fort Worth Center
07:49AM 33.8508 -96.5256 22° Northeast 438 504 30,200 1,740 Climbing Fort Worth Center
07:50AM 33.9675 -96.4719 21° North 438 504 31,400 1,380 Climbing Fort Worth Center
07:51AM 34.0817 -96.4131 23° Northeast 443 510 33,000 1,200 Climbing Fort Worth Center
07:52AM 34.1792 -96.3339 34° Northeast 424 488 33,900 960 Climbing Fort Worth Center
07:53AM 34.2828 -96.2497 34° Northeast 430 495 35,000 540 Climbing Fort Worth Center
07:54AM 34.3842 -96.1653 34° Northeast 440 506 35,000  Level Fort Worth Center
07:55AM 34.4856 -96.0833 34° Northeast 440 506 35,000  Level Fort Worth Center
07:56AM 34.5847 -96.0011 34° Northeast 440 506 35,000  Level Fort Worth Center
07:57AM 34.6881 -95.9158 34° Northeast 440 506 35,000  Level Fort Worth Center
07:58AM 34.7914 -95.8308 34° Northeast 440 506 35,000  Level Fort Worth Center
07:59AM 34.8944 -95.7428 35° Northeast 440 506 35,000  Level Fort Worth Center
08:00AM 35.0500 -95.5936 38° Northeast 450 518 35,000  Level Kansas City Center
08:01AM 35.1489 -95.4994 38° Northeast 450 518 35,000  Level Kansas City Center
08:02AM 35.2492 -95.4047 38° Northeast 454 522 35,000  Level Kansas City Center
08:03AM 35.3486 -95.3114 37° Northeast 452 520 35,000  Level Kansas City Center
08:04AM 35.4481 -95.2178 37° Northeast 451 519 35,000  Level Kansas City Center
08:05AM 35.5481 -95.1208 38° Northeast 454 522 35,000  Level Kansas City Center
08:06AM 35.6475 -95.0244 38° Northeast 455 524 35,000  Level Kansas City Center
08:07AM 35.7444 -94.9308 38° Northeast 449 517 35,000  Level Kansas City Center
08:08AM 35.8628 -94.8181 38° Northeast 449 517 35,000  Level Kansas City Center
08:09AM 35.9614 -94.7219 38° Northeast 452 520 35,000  Level Kansas City Center
08:10AM 36.0606 -94.6253 38° Northeast 454 522 35,000  Level Kansas City Center
08:11AM 36.1586 -94.5297 38° Northeast 453 521 35,000  Level Kansas City Center
08:12AM 36.2561 -94.4347 38° Northeast 450 518 35,000  Level Kansas City Center
08:13AM 36.3544 -94.3389 38° Northeast 449 517 35,000  Level Kansas City Center
08:15AM 36.4514 -94.2439 38° Northeast 447 514 35,000  Level Kansas City Center
08:16AM 36.5461 -94.1497 39° Northeast 441 507 35,000  Level Kansas City Center
08:17AM 36.6428 -94.0531 39° Northeast 444 511 35,000  Level Kansas City Center
08:18AM 36.7586 -93.9403 38° Northeast 442 509 35,000 -300 Level Kansas City Center
08:19AM 36.8539 -93.8439 39° Northeast 440 506 34,400 -720 Descending Kansas City Center
08:20AM 36.9494 -93.7447 40° Northeast 437 503 33,600 -720 Descending Kansas City Center
08:21AM 37.0450 -93.6497 38° Northeast 437 503 33,000 -600 Descending Kansas City Center
08:22AM 37.1378 -93.5553 39° Northeast 432 497 32,400 -720 Descending Kansas City Center
08:23AM 37.2308 -93.4611 39° Northeast 429 494 31,600 -720 Descending Kansas City Center
08:24AM 37.3261 -93.3694 37° Northeast 430 495 31,000 -300 Descending Kansas City Center
08:25AM 37.4142 -93.2694 42° Northeast 426 490 31,000  Level Kansas City Center
08:26AM 37.4997 -93.1672 43° Northeast 424 488 31,000  Level Kansas City Center
08:27AM 37.5881 -93.0675 42° Northeast 425 489 31,000  Level Kansas City Center
08:28AM 37.6739 -92.9639 44° Northeast 426 490 31,000  Level Kansas City Center
08:29AM 37.7450 -92.8408 54° Northeast 428 493 31,000  Level Kansas City Center
08:30AM 37.8175 -92.7189 53° Northeast 427 491 31,000  Level Kansas City Center
08:31AM 37.8892 -92.5975 53° Northeast 430 495 31,000  Level Kansas City Center
08:32AM 37.9761 -92.4539 52° Northeast 430 495 31,000  Level Kansas City Center
08:33AM 38.0444 -92.3331 54° Northeast 426 490 31,000  Level Kansas City Center
08:34AM 38.1161 -92.2125 53° Northeast 426 490 31,000 -720 Level Kansas City Center
08:35AM 38.1850 -92.0911 54° Northeast 425 489 29,600 -2,220 Descending Kansas City Center
08:36AM 38.2631 -91.9572 53° Northeast 428 493 26,600 -2,820 Descending Kansas City Center
08:37AM 38.3336 -91.8361 53° Northeast 427 491 23,900 -2,640 Descending Kansas City Center
08:38AM 38.4033 -91.7178 53° Northeast 419 482 21,200 -2,820 Descending Kansas City Center
08:39AM 38.4694 -91.5997 54° Northeast 412 474 18,200 -2,760 Descending Kansas City Center
08:40AM 38.5325 -91.4811 56° Northeast 405 466 15,600 -2,640 Descending Kansas City Center
08:41AM 38.6031 -91.3597 53° Northeast 394 453 12,800 -2,160 Descending Kansas City Center
08:42AM 38.6669 -91.2569 51° Northeast 373 429 11,200 -900 Descending Kansas City Center
08:43AM 38.6944 -91.1406 73° East 350 403 11,000 -420 Descending Kansas City Center
08:44AM 38.7014 -91.0225 86° East 338 389 10,400 -660 Descending Kansas City Center
08:45AM 38.7458 -90.9264 59° Northeast 316 364 9,700 -1,020 Descending Kansas City Center
08:46AM 38.7847 -90.8344 61° Northeast 297 342 8,400 -1,380 Descending Kansas City Center
08:47AM 38.8225 -90.7469 61° Northeast 285 328 6,900 -1,440 Descending Kansas City Center
08:48AM 38.8592 -90.6594 62° Northeast 279 321 5,500 -1,380 Descending Kansas City Center